Time;durP1;ratioP1;P1;durP2;ratioP2;P2;SDS_P1;SDS_P2;PMS_P1;PMS_P2;Temp;Humidity;BMP_temperature;BMP_pressure;BME280_temperature;BME280_humidity;BME280_pressure;Samples;Min_cycle;Max_cycle;Signal;HPM_P1;HPM_P2
2022/11/07 00:00:27;;;;;;;;;;;;;;;-143.48;85.88;78234.28;5135482;27;20327;-33
2022/11/07 00:02:52;;;;;;;;;;;;;;;-143.48;86.06;78254.09;5117139;27;19916;-35
2022/11/07 00:05:17;;;;;;;;;;;;;;;-143.48;86.14;78250.16;5135578;27;19911;-34
2022/11/07 00:07:43;;;;;;;;;;;;;;;-143.48;86.31;78246.19;5135674;27;20037;-34
2022/11/07 00:10:08;;;;;;;;;;;;;;;-143.48;86.14;78248.16;5135576;27;19915;-34
2022/11/07 00:12:36;;;;;;;;;;;;;;;-143.48;85.78;78240.22;5135539;27;20281;-34
2022/11/07 00:15:02;;;;;;;;;;;;;;;-143.48;85.67;78246.19;5135073;27;20370;-34
2022/11/07 00:17:27;;;;;;;;;;;;;;;-143.48;85.90;78246.19;5134882;27;20052;-34
2022/11/07 00:19:52;;;;;;;;;;;;;;;-143.48;85.43;78248.16;5135033;27;19911;-34
2022/11/07 00:22:18;;;;;;;;;;;;;;;-143.48;85.32;78264.03;5135858;27;20004;-34
2022/11/07 00:24:43;;;;;;;;;;;;;;;-143.48;84.96;78236.25;5116791;27;19917;-34
2022/11/07 00:27:08;;;;;;;;;;;;;;;-143.48;85.19;78246.19;5135383;27;19911;-34
2022/11/07 00:29:33;;;;;;;;;;;;;;;-143.48;85.64;78254.09;5135414;27;20402;-34
2022/11/07 00:31:58;;;;;;;;;;;;;;;-143.48;85.30;78248.16;5135095;27;19935;-35
2022/11/07 00:34:24;;;;;;;;;;;;;;;-143.48;85.23;78244.19;5135328;27;19915;-34
2022/11/07 00:36:49;;;;;;;;;;;;;;;-143.48;85.41;78248.16;5116622;27;19911;-34
2022/11/07 00:39:14;;;;;;;;;;;;;;;-143.48;85.33;78258.06;5135237;27;19945;-34
2022/11/07 00:41:39;;;;;;;;;;;;;;;-143.48;85.24;78256.09;5135496;27;19912;-34
2022/11/07 00:44:05;;;;;;;;;;;;;;;-143.48;84.81;78240.22;5135193;27;20013;-34
2022/11/07 00:46:30;;;;;;;;;;;;;;;-143.48;85.31;78252.13;5135252;27;19911;-34
2022/11/07 00:48:55;;;;;;;;;;;;;;;-143.48;85.66;78256.09;5134834;27;19911;-35
2022/11/07 00:51:21;;;;;;;;;;;;;;;-143.48;85.45;78264.03;5134920;28;19915;-33
2022/11/07 00:53:47;;;;;;;;;;;;;;;-143.48;85.56;78268.00;5134815;28;20014;-34
2022/11/07 00:56:14;;;;;;;;;;;;;;;-143.48;84.97;78248.16;5134849;27;19951;-33
2022/11/07 00:58:41;;;;;;;;;;;;;;;-143.48;84.95;78260.06;5138367;27;19916;-35
2022/11/07 01:01:10;;;;;;;;;;;;;;;-143.48;84.63;78250.16;5139255;27;19911;-34
2022/11/07 01:06:20;;;;;;;;;;;;;;;-143.48;84.71;78246.19;5139954;27;20364;-34
2022/11/07 01:08:45;;;;;;;;;;;;;;;-143.48;84.65;78262.03;5139187;27;19915;-34
2022/11/07 01:11:10;;;;;;;;;;;;;;;-143.48;84.60;78262.03;5138886;27;20032;-33
2022/11/07 01:13:35;;;;;;;;;;;;;;;-143.48;84.76;78264.03;5138886;27;19912;-34
2022/11/07 01:16:01;;;;;;;;;;;;;;;-143.48;84.72;78273.94;5138674;27;19926;-33
2022/11/07 01:18:26;;;;;;;;;;;;;;;-143.48;85.07;78268.00;5139345;27;19923;-34
2022/11/07 01:20:51;;;;;;;;;;;;;;;-143.48;85.00;78279.88;5138991;27;20322;-34
2022/11/07 01:23:16;;;;;;;;;;;;;;;-143.48;84.75;78279.88;5138942;27;19911;-33
2022/11/07 01:25:42;;;;;;;;;;;;;;;-143.48;85.20;78301.72;5138935;27;19911;-34
2022/11/07 01:28:07;;;;;;;;;;;;;;;-143.48;85.23;78287.81;5139342;27;19912;-34
2022/11/07 01:30:36;;;;;;;;;;;;;;;-143.48;84.87;78287.81;5138564;27;19964;-33
2022/11/07 01:33:01;;;;;;;;;;;;;;;-143.48;85.36;78297.75;5139028;27;19911;-33
2022/11/07 01:35:27;;;;;;;;;;;;;;;-143.48;85.14;78297.75;5138754;27;19911;-35
2022/11/07 01:37:52;;;;;;;;;;;;;;;-143.48;85.14;78297.75;5138548;27;19915;-34
2022/11/07 01:40:17;;;;;;;;;;;;;;;-143.48;85.14;78287.81;5138420;27;20323;-34
2022/11/07 01:42:42;;;;;;;;;;;;;;;-143.48;85.23;78291.78;5138286;27;20358;-33
2022/11/07 01:45:12;;;;;;;;;;;;;;;-143.48;85.12;78287.81;5138337;27;19912;-33
2022/11/07 01:47:37;;;;;;;;;;;;;;;-143.48;84.91;78279.88;5138136;27;19918;-33
2022/11/07 01:50:04;;;;;;;;;;;;;;;-143.48;85.03;78291.78;5138402;27;20350;-33
2022/11/07 01:52:38;;;;;;;;;;;;;;;-143.48;84.77;78287.81;5120515;27;19915;-34
2022/11/07 01:55:07;;;;;;;;;;;;;;;-143.48;84.69;78287.81;5137828;27;19918;-33
2022/11/07 01:57:38;;;;;;;;;;;;;;;-143.48;84.55;78281.88;5136885;27;19926;-34
2022/11/07 02:00:06;;;;;;;;;;;;;;;-143.48;84.68;78285.84;5137357;27;19911;-35
2022/11/07 02:02:31;;;;;;;;;;;;;;;-143.48;84.77;78277.91;5137810;27;19930;-34
2022/11/07 02:04:58;;;;;;;;;;;;;;;-143.48;84.78;78271.97;5137623;27;19911;-33
2022/11/07 02:07:23;;;;;;;;;;;;;;;-143.48;85.29;78283.84;5138570;27;20265;-34
2022/11/07 02:09:50;;;;;;;;;;;;;;;-143.48;85.80;78297.75;5138021;27;19912;-33
2022/11/07 02:12:16;;;;;;;;;;;;;;;-143.48;86.22;78293.78;5137781;27;20365;-34
2022/11/07 02:14:41;;;;;;;;;;;;;;;-143.48;85.80;78305.66;5137826;27;19967;-33
2022/11/07 02:17:07;;;;;;;;;;;;;;;-143.48;86.01;78297.75;5137804;27;20362;-33
2022/11/07 02:19:43;;;;;;;;;;;;;;;-143.48;86.18;78305.66;5138144;27;20378;-33
2022/11/07 02:22:11;;;;;;;;;;;;;;;-143.48;86.47;78299.72;5137828;27;20048;-33
2022/11/07 02:24:37;;;;;;;;;;;;;;;-143.48;86.40;78307.66;5138047;27;19936;-33
2022/11/07 02:27:05;;;;;;;;;;;;;;;-143.48;86.79;78305.66;5137680;27;20258;-34
2022/11/07 02:29:32;;;;;;;;;;;;;;;-143.48;86.77;78319.56;5137656;27;19911;-34
2022/11/07 02:32:01;;;;;;;;;;;;;;;-143.48;86.64;78317.56;5137314;27;19911;-33
2022/11/07 02:34:27;;;;;;;;;;;;;;;-143.48;86.66;78317.56;5137498;27;20361;-33
2022/11/07 02:36:52;;;;;;;;;;;;;;;-143.48;87.13;78329.47;5137312;27;19989;-33
2022/11/07 02:39:17;;;;;;;;;;;;;;;-143.48;87.01;78325.50;5137168;27;19973;-33
2022/11/07 02:41:43;;;;;;;;;;;;;;;-143.48;86.82;78329.47;5137182;27;19998;-34
2022/11/07 02:44:10;;;;;;;;;;;;;;;-143.48;87.23;78333.44;5137116;27;20358;-33
2022/11/07 02:46:35;;;;;;;;;;;;;;;-143.48;87.28;78325.50;5137349;27;19957;-33
2022/11/07 02:49:00;;;;;;;;;;;;;;;-143.48;87.35;78327.50;5137552;27;20296;-33
2022/11/07 02:51:26;;;;;;;;;;;;;;;-143.48;87.26;78329.47;5137600;27;19969;-34
2022/11/07 02:53:51;;;;;;;;;;;;;;;-143.48;87.09;78325.50;5136962;27;19918;-34
2022/11/07 02:56:16;;;;;;;;;;;;;;;-143.48;87.29;78329.47;5137146;27;19964;-34
2022/11/07 02:58:42;;;;;;;;;;;;;;;-143.48;86.99;78325.50;5136756;27;19919;-32
2022/11/07 03:01:07;;;;;;;;;;;;;;;-143.48;86.99;78327.50;5136702;27;20312;-34
2022/11/07 03:03:37;;;;;;;;;;;;;;;-143.48;86.69;78311.63;5136785;27;19918;-34
2022/11/07 03:06:03;;;;;;;;;;;;;;;-143.48;86.31;78321.53;5136993;27;20343;-33
2022/11/07 03:08:28;;;;;;;;;;;;;;;-143.48;86.78;78321.53;5137224;27;19919;-33
2022/11/07 03:10:53;;;;;;;;;;;;;;;-143.48;86.22;78313.59;5136869;27;20368;-34
2022/11/07 03:13:19;;;;;;;;;;;;;;;-143.48;86.30;78323.53;5136764;27;19911;-33
2022/11/07 03:15:44;;;;;;;;;;;;;;;-143.48;86.29;78333.44;5136430;27;20039;-34
2022/11/07 03:18:09;;;;;;;;;;;;;;;-143.48;86.52;78327.50;5136992;27;19915;-35
2022/11/07 03:20:34;;;;;;;;;;;;;;;-143.48;86.21;78327.50;5136900;27;20343;-34
2022/11/07 03:22:59;;;;;;;;;;;;;;;-143.48;86.21;78325.50;5136663;27;19915;-34
2022/11/07 03:25:25;;;;;;;;;;;;;;;-143.48;86.12;78327.50;5136533;27;19911;-34
2022/11/07 03:27:50;;;;;;;;;;;;;;;-143.48;86.19;78325.50;5136183;27;19915;-33
2022/11/07 03:30:15;;;;;;;;;;;;;;;-143.48;86.36;78329.47;5136448;27;20357;-33
2022/11/07 03:32:41;;;;;;;;;;;;;;;-143.48;86.35;78331.44;5135914;27;19911;-33
2022/11/07 03:35:06;;;;;;;;;;;;;;;-143.48;87.23;78327.50;5133967;27;19919;-32
2022/11/07 03:37:31;;;;;;;;;;;;;;;-143.48;87.99;78333.44;5134152;27;19923;-33
2022/11/07 03:39:56;;;;;;;;;;;;;;;-143.48;88.76;78337.41;5134193;27;20323;-33
2022/11/07 03:42:22;;;;;;;;;;;;;;;-143.48;88.59;78335.41;5133914;27;19946;-33
2022/11/07 03:44:47;;;;;;;;;;;;;;;-143.48;88.82;78331.44;5134020;27;19911;-33
2022/11/07 03:47:12;;;;;;;;;;;;;;;-143.48;88.86;78343.34;5134055;27;19918;-33
2022/11/07 03:49:37;;;;;;;;;;;;;;;-143.48;89.02;78343.34;5134991;27;19911;-33
2022/11/07 03:52:02;;;;;;;;;;;;;;;-143.48;89.35;78343.34;5135806;27;19911;-33
2022/11/07 03:54:28;;;;;;;;;;;;;;;-143.48;88.88;78339.38;5135978;27;19912;-33
2022/11/07 03:56:53;;;;;;;;;;;;;;;-143.48;88.71;78337.41;5136005;27;19911;-32
2022/11/07 03:59:18;;;;;;;;;;;;;;;-143.48;88.43;78349.31;5135616;27;19923;-32
2022/11/07 04:01:44;;;;;;;;;;;;;;;-143.48;88.59;78339.38;5135595;27;19911;-33
2022/11/07 04:04:09;;;;;;;;;;;;;;;-143.48;88.63;78343.34;5117241;27;19947;-33
2022/11/07 04:06:34;;;;;;;;;;;;;;;-143.48;88.74;78353.28;5135719;27;19991;-33
2022/11/07 04:08:59;;;;;;;;;;;;;;;-143.48;88.71;78355.25;5135809;27;19996;-33
2022/11/07 04:19:36;;;;;;;;;;;;;;;-143.48;88.08;78359.22;5135679;27;19922;-34
2022/11/07 04:22:01;;;;;;;;;;;;;;;-143.48;88.17;78357.22;5135312;27;19916;-34
2022/11/07 04:24:27;;;;;;;;;;;;;;;-143.48;87.97;78357.22;5135568;27;19912;-35
2022/11/07 04:29:35;;;;;;;;;;;;;;;-143.48;87.97;78353.28;5135466;27;19917;-33
2022/11/07 04:32:01;;;;;;;;;;;;;;;-143.48;87.76;78353.28;5134874;27;19954;-34
2022/11/07 04:34:26;;;;;;;;;;;;;;;-143.48;87.75;78345.34;5117521;27;19911;-33
2022/11/07 04:36:51;;;;;;;;;;;;;;;-143.48;87.95;78359.22;5135392;27;19964;-34
2022/11/07 04:39:16;;;;;;;;;;;;;;;-143.48;87.89;78343.34;5134878;27;20009;-33
2022/11/07 04:41:41;;;;;;;;;;;;;;;-143.48;87.88;78349.31;5135607;27;19915;-34
2022/11/07 04:44:06;;;;;;;;;;;;;;;-143.48;87.32;78333.44;5134984;27;19918;-34
2022/11/07 04:46:32;;;;;;;;;;;;;;;-143.48;87.42;78337.41;5135309;27;19965;-34
2022/11/07 04:48:57;;;;;;;;;;;;;;;-143.48;87.20;78339.38;5134840;27;19936;-32
2022/11/07 04:51:23;;;;;;;;;;;;;;;-143.48;86.99;78333.44;5135400;27;19918;-34
2022/11/07 04:53:48;;;;;;;;;;;;;;;-143.48;86.97;78333.44;5134822;28;20377;-35
2022/11/07 04:56:13;;;;;;;;;;;;;;;-143.48;87.17;78333.44;5135103;28;20015;-34
2022/11/07 04:58:38;;;;;;;;;;;;;;;-143.48;87.44;78337.41;5134797;28;20298;-34
2022/11/07 05:01:04;;;;;;;;;;;;;;;-143.48;86.86;78321.53;5116190;28;19922;-34
2022/11/07 05:03:29;;;;;;;;;;;;;;;-143.48;86.74;78331.44;5134826;28;19926;-34
2022/11/07 05:05:54;;;;;;;;;;;;;;;-143.48;86.73;78325.50;5135038;28;20292;-38
2022/11/07 05:08:19;;;;;;;;;;;;;;;-143.48;86.74;78327.50;5135313;28;20261;-34
2022/11/07 05:10:44;;;;;;;;;;;;;;;-143.48;86.71;78329.47;5116374;28;19954;-33
2022/11/07 05:13:09;;;;;;;;;;;;;;;-143.48;86.82;78321.53;5134696;28;20384;-34
2022/11/07 05:15:35;;;;;;;;;;;;;;;-143.48;87.08;78321.53;5134721;28;19969;-34
2022/11/07 05:18:00;;;;;;;;;;;;;;;-143.48;86.74;78319.56;5134229;28;20375;-33
2022/11/07 05:20:33;;;;;;;;;;;;;;;-143.48;86.60;78335.41;5134827;28;19912;-34
2022/11/07 05:23:11;;;;;;;;;;;;;;;-143.48;86.57;78323.53;5135098;28;19912;-35
2022/11/07 05:25:36;;;;;;;;;;;;;;;-143.48;86.44;78315.59;5134909;28;19911;-34
2022/11/07 05:28:01;;;;;;;;;;;;;;;-143.48;86.09;78317.56;5134553;28;20285;-34
2022/11/07 05:30:26;;;;;;;;;;;;;;;-143.48;86.13;78317.56;5134593;28;19961;-34
2022/11/07 05:32:51;;;;;;;;;;;;;;;-143.48;86.30;78319.56;5134773;28;19955;-34
2022/11/07 05:35:16;;;;;;;;;;;;;;;-143.48;86.08;78313.59;5134175;28;19911;-35
2022/11/07 05:37:42;;;;;;;;;;;;;;;-143.48;86.53;78321.53;5133590;28;19919;-34
2022/11/07 05:40:07;;;;;;;;;;;;;;;-143.48;86.14;78323.53;5133755;28;19912;-34
2022/11/07 05:42:32;;;;;;;;;;;;;;;-143.48;86.01;78313.59;5133463;27;19918;-34
2022/11/07 05:44:58;;;;;;;;;;;;;;;-143.48;85.99;78309.63;5137434;27;19940;-34
2022/11/07 05:47:23;;;;;;;;;;;;;;;-143.48;86.02;78309.63;5137683;27;20262;-34
2022/11/07 05:49:48;;;;;;;;;;;;;;;-143.48;86.09;78311.63;5138102;27;19919;-34
2022/11/07 05:52:14;;;;;;;;;;;;;;;-143.48;85.61;78305.66;5138159;27;20009;-34
2022/11/07 05:54:39;;;;;;;;;;;;;;;-143.48;86.04;78321.53;5138376;27;19912;-34
2022/11/07 05:57:04;;;;;;;;;;;;;;;-143.48;85.57;78309.63;5138549;27;19911;-34
2022/11/07 05:59:29;;;;;;;;;;;;;;;-143.48;85.69;78311.63;5138250;27;19922;-34
2022/11/07 06:01:54;;;;;;;;;;;;;;;-143.48;85.86;78301.72;5137847;27;19915;-34
2022/11/07 06:04:20;;;;;;;;;;;;;;;-143.48;86.14;78301.72;5119870;27;19912;-33
2022/11/07 06:06:45;;;;;;;;;;;;;;;-143.48;86.18;78307.66;5137894;27;19911;-35
2022/11/07 06:09:10;;;;;;;;;;;;;;;-143.48;85.95;78307.66;5138481;27;19961;-35
2022/11/07 06:11:36;;;;;;;;;;;;;;;-143.48;85.92;78323.53;5102444;27;19911;-36
2022/11/07 06:14:01;;;;;;;;;;;;;;;-143.48;86.21;78325.50;5137842;27;20565;-33
2022/11/07 06:16:26;;;;;;;;;;;;;;;-143.48;86.40;78317.56;5137650;27;20341;-34
2022/11/07 06:18:52;;;;;;;;;;;;;;;-143.48;86.11;78317.56;5137376;27;20018;-34
2022/11/07 06:21:17;;;;;;;;;;;;;;;-143.48;86.22;78313.59;5137530;27;20049;-34
2022/11/07 06:23:42;;;;;;;;;;;;;;;-143.48;85.87;78305.66;5138101;27;19911;-35
2022/11/07 06:26:07;;;;;;;;;;;;;;;-143.48;85.70;78295.75;5137813;27;19911;-33
2022/11/07 06:28:33;;;;;;;;;;;;;;;-143.48;85.80;78309.63;5138249;27;19912;-34
2022/11/07 06:30:59;;;;;;;;;;;;;;;-143.48;85.58;78305.66;5137369;27;19973;-34
2022/11/07 06:33:24;;;;;;;;;;;;;;;-143.48;85.90;78303.69;5137465;27;19911;-35
2022/11/07 06:35:49;;;;;;;;;;;;;;;-143.48;85.81;78311.63;5137654;27;19911;-35
2022/11/07 06:38:15;;;;;;;;;;;;;;;-143.48;85.85;78315.59;5137536;27;19965;-34
2022/11/07 06:40:41;;;;;;;;;;;;;;;-143.48;85.89;78319.56;5137119;27;20362;-34
2022/11/07 06:43:11;;;;;;;;;;;;;;;-143.48;86.19;78315.59;5136691;27;19926;-34
2022/11/07 06:45:37;;;;;;;;;;;;;;;-143.48;85.48;78309.63;5137417;27;19911;-34
2022/11/07 06:48:02;;;;;;;;;;;;;;;-143.48;85.33;78311.63;5136917;27;19916;-34
2022/11/07 06:50:28;;;;;;;;;;;;;;;-143.48;85.28;78307.66;5136778;27;19912;-34
2022/11/07 06:52:53;;;;;;;;;;;;;;;-143.48;85.16;78309.63;5137502;27;19911;-34
2022/11/07 06:55:20;;;;;;;;;;;;;;;-143.48;85.11;78305.66;5136117;27;19911;-34
2022/11/07 06:57:46;;;;;;;;;;;;;;;-143.48;84.94;78309.63;5137136;27;20396;-34
2022/11/07 07:00:11;;;;;;;;;;;;;;;-143.48;84.54;78309.63;5137196;27;19912;-34
2022/11/07 07:02:36;;;;;;;;;;;;;;;-143.48;84.02;78303.69;5136652;27;19918;-34
2022/11/07 07:05:01;;;;;;;;;;;;;;;-143.48;84.22;78303.69;5137055;27;19923;-34
2022/11/07 07:07:28;;;;;;;;;;;;;;;-143.48;83.76;78295.75;5136687;27;19912;-34
2022/11/07 07:09:53;;;;;;;;;;;;;;;-143.48;83.81;78295.75;5135615;27;20270;-34
2022/11/07 07:12:18;;;;;;;;;;;;;;;-143.48;83.21;78287.81;5134521;27;19919;-34
2022/11/07 07:14:43;;;;;;;;;;;;;;;-143.48;83.22;78289.81;5135871;27;19919;-34
2022/11/07 07:17:10;;;;;;;;;;;;;;;-143.48;83.04;78283.84;5136080;27;19918;-35
2022/11/07 07:19:36;;;;;;;;;;;;;;;-143.48;82.83;78281.88;5136493;27;19954;-35
2022/11/07 07:22:01;;;;;;;;;;;;;;;-143.48;82.93;78291.78;5136676;27;19911;-33
2022/11/07 07:24:26;;;;;;;;;;;;;;;-143.48;82.98;78291.78;5136394;27;19911;-34
2022/11/07 07:26:52;;;;;;;;;;;;;;;-143.48;83.08;78293.78;5135529;27;19997;-34
2022/11/07 07:29:17;;;;;;;;;;;;;;;-143.48;82.83;78299.72;5134350;27;19989;-34
2022/11/07 07:31:42;;;;;;;;;;;;;;;-143.48;82.69;78295.75;5135371;27;19911;-34
2022/11/07 07:34:07;;;;;;;;;;;;;;;-143.48;82.45;78289.81;5136284;27;19911;-34
2022/11/07 07:36:32;;;;;;;;;;;;;;;-143.48;82.19;78285.84;5136265;27;19936;-35
2022/11/07 07:38:58;;;;;;;;;;;;;;;-143.48;82.39;78293.78;5136170;27;20281;-35
2022/11/07 07:41:23;;;;;;;;;;;;;;;-143.48;81.94;78281.88;5136131;27;19912;-35
2022/11/07 07:43:48;;;;;;;;;;;;;;;-143.48;82.33;78285.84;5135926;27;19912;-34
2022/11/07 07:46:16;;;;;;;;;;;;;;;-143.48;82.31;78301.72;5117642;27;19950;-35
2022/11/07 07:48:42;;;;;;;;;;;;;;;-143.48;81.97;78289.81;5135550;27;19919;-35
2022/11/07 07:51:07;;;;;;;;;;;;;;;-143.48;82.02;78285.84;5136137;27;19911;-35
2022/11/07 07:53:32;;;;;;;;;;;;;;;-143.48;81.96;78289.81;5136066;27;20361;-35
2022/11/07 07:55:58;;;;;;;;;;;;;;;-143.48;81.74;78275.94;5136047;27;19912;-35
2022/11/07 07:58:24;;;;;;;;;;;;;;;-143.48;81.79;78283.84;5135682;27;19916;-35
2022/11/07 08:00:53;;;;;;;;;;;;;;;-143.48;81.63;78275.94;5134728;27;19912;-35
2022/11/07 08:03:18;;;;;;;;;;;;;;;-143.48;81.31;78279.88;5133141;27;20010;-33
2022/11/07 08:05:43;;;;;;;;;;;;;;;-143.48;81.03;78273.94;5135063;27;19961;-33
2022/11/07 08:08:08;;;;;;;;;;;;;;;-143.48;81.60;78269.97;5135544;27;20374;-35
2022/11/07 08:10:34;;;;;;;;;;;;;;;-143.48;81.43;78281.88;5135245;27;19911;-34
2022/11/07 08:12:59;;;;;;;;;;;;;;;-143.48;81.48;78281.88;5116739;27;19911;-34
2022/11/07 08:15:24;;;;;;;;;;;;;;;-143.48;80.94;78281.88;5135096;27;19920;-33
2022/11/07 08:17:49;;;;;;;;;;;;;;;-143.48;81.05;78279.88;5135525;27;19915;-35
2022/11/07 08:20:15;;;;;;;;;;;;;;;-143.48;81.07;78279.88;5115556;27;19912;-34
2022/11/07 08:22:41;;;;;;;;;;;;;;;-143.48;81.05;78269.97;5135477;27;19934;-33
2022/11/07 08:25:07;;;;;;;;;;;;;;;-143.48;81.14;78283.84;5135804;27;19918;-37
2022/11/07 08:27:33;;;;;;;;;;;;;;;-143.48;80.99;78277.91;5135215;27;19915;-41
2022/11/07 08:29:58;;;;;;;;;;;;;;;-143.48;81.27;78285.84;5135531;27;20006;-38
2022/11/07 08:32:25;;;;;;;;;;;;;;;-143.48;80.87;78277.91;5135414;27;19912;-35
2022/11/07 08:34:50;;;;;;;;;;;;;;;-143.48;81.43;78287.81;5135231;27;20393;-35
2022/11/07 08:37:15;;;;;;;;;;;;;;;-143.48;81.60;78309.63;5135003;27;19911;-34
2022/11/07 08:39:40;;;;;;;;;;;;;;;-143.48;81.50;78297.75;5135623;27;19981;-35
2022/11/07 08:42:06;;;;;;;;;;;;;;;-143.48;81.52;78289.81;5135291;27;19911;-35
2022/11/07 08:44:33;;;;;;;;;;;;;;;-143.48;81.39;78279.88;5134403;27;19918;-35
2022/11/07 08:46:59;;;;;;;;;;;;;;;-143.48;81.38;78273.94;5135057;27;20352;-36
2022/11/07 08:49:24;;;;;;;;;;;;;;;-143.48;81.26;78258.06;5133634;27;19932;-34
2022/11/07 08:51:49;;;;;;;;;;;;;;;-143.48;80.79;78268.00;5133623;27;19911;-35
2022/11/07 08:54:14;;;;;;;;;;;;;;;-143.48;80.39;78244.19;5115784;28;19911;-35
2022/11/07 08:56:39;;;;;;;;;;;;;;;-143.48;80.15;78242.22;5134139;28;19937;-34
2022/11/07 08:59:05;;;;;;;;;;;;;;;-143.48;80.08;78234.28;5134278;28;20002;-35
2022/11/07 09:01:30;;;;;;;;;;;;;;;-143.48;80.01;78242.22;5134367;27;19919;-34
2022/11/07 09:03:55;;;;;;;;;;;;;;;-143.48;79.61;78230.31;5134794;28;19918;-35
2022/11/07 09:06:20;;;;;;;;;;;;;;;-143.48;79.29;78232.28;5135036;28;19980;-35
2022/11/07 09:08:45;;;;;;;;;;;;;;;-143.48;78.50;78218.41;5135069;28;19943;-36
2022/11/07 09:11:14;;;;;;;;;;;;;;;-143.48;78.77;78210.47;5134969;28;19911;-35
2022/11/07 09:13:39;;;;;;;;;;;;;;;-143.48;78.71;78216.44;5134629;28;19911;-37
2022/11/07 09:16:04;;;;;;;;;;;;;;;-143.48;78.27;78206.50;5134620;28;20039;-36
2022/11/07 09:18:30;;;;;;;;;;;;;;;-143.48;78.38;78216.44;5136476;27;19967;-34
2022/11/07 09:20:56;;;;;;;;;;;;;;;-143.48;78.92;78216.44;5139158;27;20008;-35
2022/11/07 09:23:21;;;;;;;;;;;;;;;-143.48;79.22;78240.22;5138675;27;19918;-35
2022/11/07 09:25:46;;;;;;;;;;;;;;;-143.48;79.38;78240.22;5138870;27;20277;-35
2022/11/07 09:28:12;;;;;;;;;;;;;;;-143.48;79.35;78224.38;5138859;27;19916;-35
2022/11/07 09:30:38;;;;;;;;;;;;;;;-143.48;78.82;78234.28;5138564;27;20312;-35
2022/11/07 09:33:03;;;;;;;;;;;;;;;-143.48;78.93;78236.25;5120849;27;19911;-35
2022/11/07 09:35:28;;;;;;;;;;;;;;;-143.48;79.51;78238.25;5138759;27;19917;-35
2022/11/07 09:37:53;;;;;;;;;;;;;;;-143.48;78.58;78234.28;5138392;27;19915;-35
2022/11/07 09:40:23;;;;;;;;;;;;;;;-143.48;78.66;78226.34;5138751;27;19911;-36
2022/11/07 09:43:00;;;;;;;;;;;;;;;-143.48;78.69;78220.41;5138575;27;19911;-35
2022/11/07 09:45:27;;;;;;;;;;;;;;;-143.48;78.57;78224.38;5138227;27;19917;-35
2022/11/07 09:47:57;;;;;;;;;;;;;;;-143.48;78.71;78218.41;5138198;27;19916;-35
2022/11/07 09:50:24;;;;;;;;;;;;;;;-143.48;78.20;78210.47;5138274;27;19915;-35
2022/11/07 09:53:00;;;;;;;;;;;;;;;-143.48;78.09;78214.44;5138836;27;20377;-35
2022/11/07 09:55:28;;;;;;;;;;;;;;;-143.48;78.27;78216.44;5138136;27;20369;-35
2022/11/07 09:57:56;;;;;;;;;;;;;;;-143.48;78.05;78220.41;5137770;27;19915;-35
2022/11/07 10:00:22;;;;;;;;;;;;;;;-143.48;77.93;78200.56;5137031;27;19998;-36
2022/11/07 10:02:57;;;;;;;;;;;;;;;-143.48;77.93;78214.44;5138315;27;19955;-35
2022/11/07 10:05:40;;;;;;;;;;;;;;;-143.48;78.68;78230.31;5138196;27;19922;-35
2022/11/07 10:08:08;;;;;;;;;;;;;;;-143.48;78.55;78230.31;5137858;27;19975;-35
2022/11/07 10:10:53;;;;;;;;;;;;;;;-143.48;78.54;78230.31;5137471;27;19912;-35
2022/11/07 10:13:24;;;;;;;;;;;;;;;-143.48;77.99;78232.28;5119012;27;20006;-35
2022/11/07 10:15:55;;;;;;;;;;;;;;;-143.48;78.45;78248.16;5137653;27;19919;-35
2022/11/07 10:18:20;;;;;;;;;;;;;;;-143.48;78.58;78238.25;5137699;27;19922;-36
2022/11/07 10:20:51;;;;;;;;;;;;;;;-143.48;78.66;78240.22;5137850;27;19911;-35
2022/11/07 10:23:35;;;;;;;;;;;;;;;-143.48;78.61;78244.19;5138208;27;20392;-35
2022/11/07 10:26:06;;;;;;;;;;;;;;;-143.48;78.39;78230.31;5137852;27;19915;-35
2022/11/07 10:28:34;;;;;;;;;;;;;;;-143.48;78.20;78236.25;5137861;27;19936;-38
2022/11/07 10:31:00;;;;;;;;;;;;;;;-143.48;78.21;78234.28;5136715;27;19951;-35
2022/11/07 10:33:26;;;;;;;;;;;;;;;-143.48;77.96;78226.34;5137475;27;19918;-35
2022/11/07 10:35:54;;;;;;;;;;;;;;;-143.48;78.75;78226.34;5138015;27;19912;-35
2022/11/07 10:38:39;;;;;;;;;;;;;;;-143.48;79.10;78222.38;5138026;27;19926;-36
2022/11/07 10:41:12;;;;;;;;;;;;;;;-143.48;79.10;78226.34;5137478;27;19912;-34
2022/11/07 10:43:38;;;;;;;;;;;;;;;-143.48;79.19;78228.31;5136656;27;19918;-34
2022/11/07 10:46:10;;;;;;;;;;;;;;;-143.48;79.08;78212.47;5136306;27;20002;-35
2022/11/07 10:48:35;;;;;;;;;;;;;;;-143.48;78.76;78190.66;5136891;27;19917;-35
2022/11/07 10:51:00;;;;;;;;;;;;;;;-143.48;78.12;78168.84;5137093;27;19911;-35
2022/11/07 10:53:26;;;;;;;;;;;;;;;-143.48;78.04;78190.66;5137366;27;19919;-35
2022/11/07 10:55:52;;;;;;;;;;;;;;;-143.48;76.27;78133.13;5137013;27;19918;-35
2022/11/07 10:58:20;;;;;;;;;;;;;;;-143.48;75.31;78119.25;5136899;27;19916;-35
2022/11/07 11:00:55;;;;;;;;;;;;;;;-143.48;76.31;78158.91;5136776;27;19912;-35
2022/11/07 11:03:24;;;;;;;;;;;;;;;-143.48;76.51;78172.81;5136665;27;19918;-36
2022/11/07 11:05:50;;;;;;;;;;;;;;;-143.48;76.41;78154.94;5136795;27;19912;-35
2022/11/07 11:08:16;;;;;;;;;;;;;;;-143.48;76.80;78172.81;5136673;27;19911;-35
2022/11/07 11:10:42;;;;;;;;;;;;;;;-143.48;76.64;78190.66;5136766;27;20052;-34
2022/11/07 11:13:26;;;;;;;;;;;;;;;-143.48;76.75;78164.88;5136680;27;19960;-35
2022/11/07 11:15:51;;;;;;;;;;;;;;;-143.48;76.56;78192.63;5136378;27;20354;-34
2022/11/07 11:18:17;;;;;;;;;;;;;;;-143.48;76.33;78196.59;5136773;27;19927;-35
2022/11/07 11:20:53;;;;;;;;;;;;;;;-143.48;76.95;78198.59;5136751;27;19938;-35
2022/11/07 11:23:20;;;;;;;;;;;;;;;-143.48;77.61;78200.56;5136744;27;20327;-36
2022/11/07 11:25:47;;;;;;;;;;;;;;;-143.48;77.32;78208.50;5136311;27;19935;-35
2022/11/07 11:28:33;;;;;;;;;;;;;;;-143.48;77.70;78198.59;5136575;27;19998;-34
2022/11/07 11:31:01;;;;;;;;;;;;;;;-143.48;77.19;78182.72;5136285;27;19912;-36
2022/11/07 11:33:33;;;;;;;;;;;;;;;-143.48;77.34;78192.63;5136497;27;20385;-35
2022/11/07 11:36:02;;;;;;;;;;;;;;;-143.48;77.27;78206.50;5136462;27;19911;-35
2022/11/07 11:38:30;;;;;;;;;;;;;;;-143.48;77.06;78188.66;5136274;27;19937;-36
2022/11/07 11:41:03;;;;;;;;;;;;;;;-143.48;76.38;78190.66;5136276;27;19968;-35
2022/11/07 11:43:32;;;;;;;;;;;;;;;-143.48;76.25;78158.91;5136384;27;20057;-35
2022/11/07 11:45:57;;;;;;;;;;;;;;;-143.48;76.07;78158.91;5135968;27;19960;-35
2022/11/07 11:48:24;;;;;;;;;;;;;;;-143.48;76.05;78160.91;5136374;27;19911;-34
2022/11/07 11:50:53;;;;;;;;;;;;;;;-143.48;76.53;78170.81;5136167;27;19912;-35
2022/11/07 11:53:20;;;;;;;;;;;;;;;-143.48;76.75;78170.81;5135829;27;19957;-35
2022/11/07 11:55:53;;;;;;;;;;;;;;;-143.48;76.35;78162.88;5135756;27;19990;-35
2022/11/07 11:58:18;;;;;;;;;;;;;;;-143.48;77.28;78192.63;5136558;27;19965;-36
2022/11/07 12:00:49;;;;;;;;;;;;;;;-143.48;77.68;78188.66;5135957;27;19918;-35
2022/11/07 12:03:37;;;;;;;;;;;;;;;-143.48;77.32;78168.84;5135714;27;19918;-35
2022/11/07 12:06:21;;;;;;;;;;;;;;;-143.48;77.65;78180.72;5135888;27;20012;-37
2022/11/07 12:08:58;;;;;;;;;;;;;;;-143.48;77.98;78170.81;5135552;27;19947;-32
2022/11/07 12:11:42;;;;;;;;;;;;;;;-143.48;78.12;78170.81;5135477;27;19912;-33
2022/11/07 12:14:23;;;;;;;;;;;;;;;-143.48;77.86;78174.78;5136159;27;19980;-33
2022/11/07 12:17:09;;;;;;;;;;;;;;;-143.48;78.30;78186.69;5135670;27;19972;-37
2022/11/07 12:19:56;;;;;;;;;;;;;;;-143.48;78.04;78208.50;5135575;27;19953;-33
2022/11/07 12:22:39;;;;;;;;;;;;;;;-143.48;77.93;78198.59;5135838;27;20388;-33
2022/11/07 12:25:06;;;;;;;;;;;;;;;-143.48;78.38;78194.63;5134858;27;20302;-33
2022/11/07 12:27:31;;;;;;;;;;;;;;;-143.48;78.32;78208.50;5135255;27;19969;-33
2022/11/07 12:30:03;;;;;;;;;;;;;;;-143.48;78.18;78194.63;5134964;27;20291;-35
2022/11/07 12:32:28;;;;;;;;;;;;;;;-143.48;77.45;78188.66;5135116;27;19911;-33
2022/11/07 12:34:57;;;;;;;;;;;;;;;-143.48;76.85;78172.81;5135317;27;20090;-33
2022/11/07 12:37:48;;;;;;;;;;;;;;;-143.48;76.99;78170.81;5135364;27;19915;-34
2022/11/07 12:40:32;;;;;;;;;;;;;;;-143.48;76.56;78172.81;5135406;27;19999;-34